createdAt,value
2018-06-17T00:00:01.616Z,8.47
2018-06-17T00:02:29.902Z,5.33
2018-06-17T00:04:58.374Z,7.13
2018-06-17T00:07:26.733Z,8.57
2018-06-17T00:09:55.286Z,9.03
2018-06-17T00:12:23.601Z,6.23
2018-06-17T00:14:51.881Z,6.93
2018-06-17T00:17:20.168Z,6.33
2018-06-17T00:19:48.743Z,7.60
2018-06-17T00:22:17.051Z,7.77
2018-06-17T00:24:45.668Z,5.57
2018-06-17T00:27:13.987Z,6.93
2018-06-17T00:29:42.269Z,10.47
2018-06-17T00:32:10.541Z,8.50
2018-06-17T00:34:38.905Z,7.80
2018-06-17T00:37:07.223Z,8.07
2018-06-17T00:39:35.560Z,7.17
2018-06-17T00:42:04.333Z,6.90
2018-06-17T00:44:32.841Z,7.70
2018-06-17T00:47:01.136Z,10.23
2018-06-17T00:49:29.588Z,5.97
2018-06-17T00:51:57.951Z,6.47
2018-06-17T00:54:26.313Z,8.47
2018-06-17T00:57:05.970Z,6.07
2018-06-17T00:59:34.297Z,8.23
2018-06-17T01:02:02.597Z,4.63
2018-06-17T01:04:30.965Z,5.37
2018-06-17T01:06:59.254Z,5.13
2018-06-17T01:09:27.561Z,6.73
2018-06-17T01:11:55.828Z,5.00
2018-06-17T01:14:24.112Z,9.10
2018-06-17T01:16:52.439Z,5.17
2018-06-17T01:19:20.700Z,8.23
2018-06-17T01:21:48.985Z,11.00
2018-06-17T01:24:17.308Z,9.77
2018-06-17T01:26:45.623Z,8.03
2018-06-17T01:29:14.005Z,16.73
2018-06-17T01:31:42.272Z,17.90
2018-06-17T01:34:10.586Z,11.23
2018-06-17T01:36:38.906Z,11.60
2018-06-17T01:39:08.132Z,17.80
2018-06-17T01:41:36.451Z,13.70
2018-06-17T01:44:04.788Z,10.73
2018-06-17T01:46:33.133Z,14.33
2018-06-17T01:49:01.671Z,13.43
2018-06-17T01:51:29.950Z,15.60
2018-06-17T01:53:58.299Z,16.90
2018-06-17T01:56:26.808Z,15.40
2018-06-17T01:58:55.146Z,13.87
2018-06-17T02:01:23.434Z,14.57
2018-06-17T02:03:57.097Z,15.07
2018-06-17T02:06:30.809Z,14.37
2018-06-17T02:09:04.588Z,13.67
2018-06-17T02:11:41.649Z,12.83
2018-06-17T02:14:15.208Z,18.40
2018-06-17T02:16:43.643Z,21.17
2018-06-17T02:19:12.088Z,19.77
2018-06-17T02:21:40.402Z,19.73
2018-06-17T02:24:09.303Z,17.83
2018-06-17T02:26:37.620Z,21.67
2018-06-17T02:29:05.991Z,20.93
2018-06-17T02:31:34.303Z,22.77
2018-06-17T02:34:02.636Z,20.37
2018-06-17T02:36:30.934Z,17.87
2018-06-17T02:38:59.215Z,22.63
2018-06-17T02:41:27.602Z,19.47
2018-06-17T02:43:55.885Z,22.23
2018-06-17T02:46:29.568Z,13.70
2018-06-17T02:49:03.177Z,17.10
2018-06-17T02:53:43.183Z,17.57
2018-06-17T02:56:11.507Z,11.63
2018-06-17T02:58:39.843Z,22.10
2018-06-17T03:01:08.144Z,18.20
2018-06-17T03:03:36.466Z,23.33
2018-06-17T03:06:04.801Z,22.13
2018-06-17T03:08:33.095Z,19.30
2018-06-17T03:11:01.405Z,17.90
2018-06-17T03:13:29.484Z,19.50
2018-06-17T03:15:57.796Z,21.67
2018-06-17T03:18:26.095Z,19.40
2018-06-17T03:20:54.400Z,25.87
2018-06-17T03:23:22.702Z,21.93
2018-06-17T03:25:56.309Z,18.63
2018-06-17T03:28:30.052Z,21.93
2018-06-17T03:31:03.695Z,21.70
2018-06-17T03:33:37.381Z,22.07
2018-06-17T03:36:11.263Z,21.20
2018-06-17T03:38:40.933Z,26.93
2018-06-17T03:41:09.714Z,19.10
2018-06-17T03:43:38.376Z,26.00
2018-06-17T03:46:06.798Z,19.30
2018-06-17T03:48:34.855Z,20.13
2018-06-17T03:51:03.720Z,21.87
2018-06-17T03:53:32.327Z,20.30
2018-06-17T03:56:00.995Z,21.67
2018-06-17T03:58:29.278Z,20.70
2018-06-17T04:00:57.560Z,19.20
2018-06-17T04:03:25.874Z,18.10
2018-06-17T04:05:54.170Z,16.87
2018-06-17T04:08:22.429Z,18.47
2018-06-17T04:10:50.695Z,18.77
2018-06-17T04:13:18.970Z,18.00
2018-06-17T04:15:47.607Z,18.27
2018-06-17T04:18:15.967Z,17.17
2018-06-17T04:20:44.244Z,18.43
2018-06-17T04:23:12.531Z,18.03
2018-06-17T04:25:40.864Z,15.10
2018-06-17T04:28:09.324Z,16.93
2018-06-17T04:30:37.646Z,18.70
2018-06-17T04:33:05.927Z,15.87
2018-06-17T04:35:34.567Z,20.93
2018-06-17T04:38:02.862Z,15.73
2018-06-17T04:40:31.110Z,17.30
2018-06-17T04:42:59.413Z,15.00
2018-06-17T04:45:27.413Z,12.80
2018-06-17T04:47:55.843Z,13.30
2018-06-17T04:50:24.095Z,17.30
2018-06-17T04:52:52.773Z,15.00
2018-06-17T04:55:21.118Z,16.27
2018-06-17T04:57:49.358Z,13.50
2018-06-17T05:00:17.625Z,13.57
2018-06-17T05:02:45.890Z,13.93
2018-06-17T05:05:14.174Z,12.17
2018-06-17T05:07:42.475Z,12.63
2018-06-17T05:10:10.723Z,15.83
2018-06-17T05:12:39.023Z,9.00
2018-06-17T05:15:07.325Z,11.67
2018-06-17T05:17:35.578Z,10.53
2018-06-17T05:20:03.884Z,8.03
2018-06-17T05:22:32.165Z,13.63
2018-06-17T05:25:00.443Z,12.80
2018-06-17T05:27:28.731Z,9.13
2018-06-17T05:29:57.318Z,9.73
2018-06-17T05:32:25.620Z,7.63
2018-06-17T05:34:53.934Z,10.57
2018-06-17T05:37:21.982Z,9.10
2018-06-17T05:39:50.255Z,13.03
2018-06-17T05:42:18.681Z,9.53
2018-06-17T05:44:46.956Z,8.83
2018-06-17T05:47:15.265Z,7.60
2018-06-17T05:49:43.715Z,10.50
2018-06-17T05:52:12.212Z,9.57
2018-06-17T05:54:40.229Z,6.53
2018-06-17T05:57:08.488Z,7.23
2018-06-17T05:59:36.771Z,6.63
2018-06-17T06:02:05.415Z,6.77
2018-06-17T06:04:34.097Z,5.57
2018-06-17T06:07:02.353Z,8.10
2018-06-17T06:09:30.633Z,7.93
2018-06-17T06:11:58.888Z,7.70
2018-06-17T06:14:27.156Z,9.27
2018-06-17T06:16:55.464Z,8.27
2018-06-17T06:19:23.709Z,11.00
2018-06-17T06:21:51.987Z,5.77
2018-06-17T06:24:20.242Z,7.30
2018-06-17T06:26:48.502Z,8.83
2018-06-17T06:29:16.792Z,9.33
2018-06-17T06:31:45.220Z,8.77
2018-06-17T06:34:13.572Z,9.40
2018-06-17T06:36:41.838Z,6.03
2018-06-17T06:39:11.167Z,8.40
2018-06-17T06:41:39.503Z,6.10
2018-06-17T06:44:07.795Z,7.40
2018-06-17T06:46:36.554Z,6.55
2018-06-17T06:49:05.421Z,8.30
2018-06-17T06:51:34.581Z,7.20
2018-06-17T06:54:02.856Z,9.08
2018-06-17T06:56:31.145Z,6.20
2018-06-17T06:59:00.012Z,4.12
2018-06-17T07:01:39.699Z,5.10
2018-06-17T07:04:19.247Z,6.63
2018-06-17T07:06:58.851Z,6.65
2018-06-17T07:09:38.561Z,4.92
2018-06-17T07:12:06.912Z,8.53
2018-06-17T07:14:35.166Z,10.50
2018-06-17T07:17:14.788Z,6.50
2018-06-17T07:19:43.062Z,5.20
2018-06-17T07:22:11.360Z,7.97
2018-06-17T07:24:40.205Z,5.83
2018-06-17T07:27:19.861Z,7.70
2018-06-17T07:29:48.380Z,7.20
2018-06-17T07:32:16.654Z,8.40
2018-06-17T07:34:44.969Z,6.70
2018-06-17T07:37:13.232Z,11.60
2018-06-17T07:40:53.994Z,9.15
2018-06-17T07:43:22.415Z,6.47
2018-06-17T07:45:51.276Z,6.60
2018-06-17T07:49:40.564Z,6.15
2018-06-17T07:52:21.220Z,4.60
2018-06-17T07:54:54.071Z,7.03
2018-06-17T07:57:24.264Z,8.33
2018-06-17T07:59:53.068Z,6.87
2018-06-17T08:02:21.970Z,5.87
2018-06-17T08:04:50.588Z,5.43
2018-06-17T08:07:20.687Z,9.00
2018-06-17T08:09:49.627Z,8.05
2018-06-17T08:12:18.784Z,8.10
2018-06-17T08:14:47.648Z,7.92
2018-06-17T08:17:16.545Z,6.33
2018-06-17T08:19:45.417Z,4.72
2018-06-17T08:22:14.327Z,7.40
2018-06-17T08:24:43.146Z,8.15
2018-06-17T08:27:12.015Z,6.83
2018-06-17T08:29:40.935Z,6.55
2018-06-17T08:32:10.095Z,6.45
2018-06-17T08:34:38.970Z,7.58
2018-06-17T08:37:07.834Z,6.42
2018-06-17T08:39:36.681Z,7.80
2018-06-17T08:42:06.181Z,6.40
2018-06-17T08:44:35.067Z,9.00
2018-06-17T08:47:05.533Z,6.65
2018-06-17T08:49:34.143Z,10.23
2018-06-17T08:52:02.949Z,7.70
2018-06-17T08:54:31.833Z,8.28
2018-06-17T08:57:00.702Z,7.60
2018-06-17T08:59:29.513Z,6.62
2018-06-17T09:01:58.400Z,5.30
2018-06-17T09:04:27.231Z,8.83
2018-06-17T09:06:56.082Z,5.53
2018-06-17T09:09:24.908Z,5.28
2018-06-17T09:11:53.790Z,7.60
2018-06-17T09:14:22.643Z,6.50
2018-06-17T09:16:51.501Z,5.28
2018-06-17T09:19:20.350Z,6.80
2018-06-17T09:21:49.422Z,7.33
2018-06-17T09:24:18.286Z,6.42
2018-06-17T09:26:47.106Z,6.45
2018-06-17T09:29:15.950Z,6.42
2018-06-17T09:31:44.877Z,9.05
2018-06-17T09:34:14.006Z,7.80
2018-06-17T09:36:42.883Z,7.97
2018-06-17T09:39:11.987Z,8.88
2018-06-17T09:41:40.823Z,6.87
2018-06-17T09:44:09.657Z,6.50
2018-06-17T09:46:38.496Z,6.03
2018-06-17T09:49:07.432Z,7.40
2018-06-17T09:51:36.308Z,7.10
2018-06-17T09:54:05.354Z,8.95
2018-06-17T09:56:34.222Z,6.58
2018-06-17T09:59:03.094Z,10.13
2018-06-17T10:01:32.053Z,7.47
2018-06-17T10:04:00.798Z,8.57
2018-06-17T10:06:29.678Z,9.38
2018-06-17T10:08:58.636Z,10.88
2018-06-17T10:11:27.657Z,6.10
2018-06-17T10:13:56.461Z,7.37
2018-06-17T10:16:25.351Z,11.18
2018-06-17T10:18:54.159Z,5.58
2018-06-17T10:21:22.987Z,7.03
2018-06-17T10:23:51.820Z,10.38
2018-06-17T10:26:20.668Z,7.10
2018-06-17T10:28:49.532Z,6.00
2018-06-17T10:31:18.367Z,5.30
2018-06-17T10:33:47.239Z,6.55
2018-06-17T10:36:16.097Z,5.10
2018-06-17T10:38:44.978Z,7.72
2018-06-17T10:41:13.814Z,8.48
2018-06-17T10:43:42.704Z,9.50
2018-06-17T10:46:11.530Z,8.30
2018-06-17T10:48:40.368Z,7.33
2018-06-17T10:51:09.198Z,8.10
2018-06-17T10:53:38.044Z,8.93
2018-06-17T10:56:06.962Z,5.65
2018-06-17T10:58:35.959Z,5.70
2018-06-17T11:01:04.799Z,7.72
2018-06-17T11:03:33.687Z,6.22
2018-06-17T11:06:02.587Z,6.12
2018-06-17T11:08:31.439Z,9.10
2018-06-17T11:11:00.294Z,6.17
2018-06-17T11:13:29.143Z,7.47
2018-06-17T11:15:57.989Z,6.33
2018-06-17T11:18:26.816Z,6.47
2018-06-17T11:20:55.808Z,4.92
2018-06-17T11:23:24.641Z,8.28
2018-06-17T11:25:53.459Z,5.67
2018-06-17T11:28:22.288Z,7.87
2018-06-17T11:30:51.091Z,7.08
2018-06-17T11:33:19.696Z,4.85
2018-06-17T11:35:48.570Z,5.17
2018-06-17T11:38:17.399Z,8.35
2018-06-17T11:40:46.240Z,3.65
2018-06-17T11:43:15.096Z,6.87
2018-06-17T11:45:45.645Z,5.20
2018-06-17T11:48:14.521Z,5.03
2018-06-17T11:50:43.494Z,7.42
2018-06-17T11:53:12.442Z,8.73
2018-06-17T11:55:41.338Z,6.47
2018-06-17T11:58:10.201Z,5.92
2018-06-17T12:00:39.116Z,4.70
2018-06-17T12:03:07.933Z,9.05
2018-06-17T12:05:36.662Z,8.17
2018-06-17T12:08:05.721Z,7.75
2018-06-17T12:10:34.640Z,5.90
2018-06-17T12:13:03.262Z,5.45
2018-06-17T12:15:32.117Z,7.00
2018-06-17T12:18:00.697Z,5.50
2018-06-17T12:20:29.523Z,4.58
2018-06-17T12:22:58.480Z,6.80
2018-06-17T12:25:27.417Z,7.30
2018-06-17T12:27:56.437Z,8.90
2018-06-17T12:30:25.270Z,4.87
2018-06-17T12:32:54.149Z,6.60
2018-06-17T12:35:22.968Z,7.03
2018-06-17T12:37:51.955Z,4.35
2018-06-17T12:40:20.824Z,4.58
2018-06-17T12:42:49.689Z,4.92
2018-06-17T12:45:18.526Z,4.50
2018-06-17T12:47:47.642Z,6.58
2018-06-17T12:50:16.506Z,7.70
2018-06-17T12:52:45.391Z,5.78
2018-06-17T12:55:14.220Z,5.75
2018-06-17T12:57:43.090Z,6.17
2018-06-17T13:00:12.564Z,5.42
2018-06-17T13:02:41.548Z,5.95
2018-06-17T13:05:10.162Z,5.60
2018-06-17T13:07:39.053Z,6.75
2018-06-17T13:10:08.230Z,5.72
2018-06-17T13:12:37.117Z,4.47
2018-06-17T13:15:06.117Z,8.45
2018-06-17T13:17:34.981Z,8.10
2018-06-17T13:20:03.884Z,5.65
2018-06-17T13:22:32.717Z,8.15
2018-06-17T13:25:01.552Z,4.97
2018-06-17T13:27:30.471Z,5.92
2018-06-17T13:29:59.672Z,10.20
2018-06-17T13:32:28.447Z,11.25
2018-06-17T13:34:57.475Z,4.58
2018-06-17T13:37:26.399Z,7.10
2018-06-17T13:39:55.473Z,7.55
2018-06-17T13:42:24.044Z,8.48
2018-06-17T13:44:52.896Z,6.58
2018-06-17T13:47:21.939Z,6.83
2018-06-17T13:49:51.996Z,5.95
2018-06-17T13:52:20.818Z,7.70
2018-06-17T13:54:49.645Z,7.22
2018-06-17T13:57:18.496Z,7.28
2018-06-17T13:59:47.394Z,6.75
2018-06-17T14:02:16.262Z,4.80
2018-06-17T14:04:45.216Z,6.43
2018-06-17T14:07:14.075Z,8.73
2018-06-17T14:09:42.969Z,5.03
2018-06-17T14:12:11.955Z,10.00
2018-06-17T14:14:40.839Z,5.97
2018-06-17T14:17:09.777Z,6.55
2018-06-17T14:19:38.679Z,6.50
2018-06-17T14:22:07.577Z,6.42
2018-06-17T14:24:36.503Z,4.70
2018-06-17T14:27:05.473Z,4.40
2018-06-17T14:29:34.741Z,4.42
2018-06-17T14:32:03.709Z,5.12
2018-06-17T14:34:32.645Z,5.37
2018-06-17T14:37:01.651Z,5.65
2018-06-17T14:39:30.685Z,6.67
2018-06-17T14:42:05.084Z,5.35
2018-06-17T14:44:39.407Z,6.55
2018-06-17T14:47:13.551Z,4.78
2018-06-17T14:49:47.709Z,5.97
2018-06-17T14:52:21.956Z,6.85
2018-06-17T14:54:50.839Z,4.50
2018-06-17T14:57:19.695Z,4.35
2018-06-17T14:59:48.546Z,6.62
2018-06-17T15:02:17.435Z,6.92
2018-06-17T15:04:46.040Z,5.57
2018-06-17T15:07:15.011Z,4.83
2018-06-17T15:09:44.223Z,4.65
2018-06-17T15:12:13.205Z,6.17
2018-06-17T15:14:42.034Z,4.25
2018-06-17T15:17:10.861Z,5.00
2018-06-17T15:19:39.727Z,6.42
2018-06-17T15:22:08.603Z,7.78
2018-06-17T15:24:37.467Z,6.95
2018-06-17T15:27:06.377Z,4.03
2018-06-17T15:29:35.244Z,4.95
2018-06-17T15:32:09.535Z,6.15
2018-06-17T15:34:43.646Z,5.83
2018-06-17T15:37:17.721Z,5.83
2018-06-17T15:39:50.615Z,4.22
2018-06-17T15:42:19.476Z,4.97
2018-06-17T15:44:48.425Z,8.40
2018-06-17T15:47:17.738Z,6.55
2018-06-17T15:49:46.648Z,5.83
2018-06-17T15:52:15.537Z,5.17
2018-06-17T15:54:44.442Z,4.83
2018-06-17T15:57:13.373Z,3.62
2018-06-17T15:59:42.379Z,6.03
2018-06-17T16:02:11.279Z,5.50
2018-06-17T16:04:39.868Z,3.43
2018-06-17T16:07:08.824Z,7.40
2018-06-17T16:09:37.769Z,6.25
2018-06-17T16:12:12.289Z,5.58
2018-06-17T16:16:54.153Z,8.18
2018-06-17T16:19:28.743Z,6.17
2018-06-17T16:21:57.955Z,5.85
2018-06-17T16:24:26.885Z,6.42
2018-06-17T16:26:55.869Z,10.08
2018-06-17T16:29:24.730Z,5.83
2018-06-17T16:31:53.727Z,7.03
2018-06-17T16:34:22.748Z,7.20
2018-06-17T16:36:51.556Z,8.28
2018-06-17T16:39:20.450Z,6.75
2018-06-17T16:41:49.272Z,7.20
2018-06-17T16:44:18.101Z,5.90
2018-06-17T16:46:46.943Z,7.67
2018-06-17T16:49:15.823Z,4.40
2018-06-17T16:51:50.175Z,5.25
2018-06-17T16:54:24.464Z,6.50
2018-06-17T16:56:58.641Z,4.78
2018-06-17T16:59:32.800Z,7.62
2018-06-17T17:02:01.812Z,7.50
2018-06-17T17:04:30.407Z,4.37
2018-06-17T17:06:59.234Z,5.80
2018-06-17T17:09:28.063Z,8.25
2018-06-17T17:11:56.666Z,6.67
2018-06-17T17:14:25.546Z,5.65
2018-06-17T17:16:54.138Z,5.67
2018-06-17T17:19:22.961Z,7.33
2018-06-17T17:21:51.833Z,6.20
2018-06-17T17:24:20.726Z,6.80
2018-06-17T17:26:49.597Z,5.25
2018-06-17T17:29:19.288Z,9.45
2018-06-17T17:31:53.968Z,5.78
2018-06-17T17:34:28.322Z,6.45
2018-06-17T17:37:02.879Z,6.92
2018-06-17T17:39:37.023Z,6.75
2018-06-17T17:42:05.645Z,8.58
2018-06-17T17:44:39.745Z,8.98
2018-06-17T17:47:13.845Z,7.10
2018-06-17T17:49:42.748Z,8.83
2018-06-17T17:52:11.672Z,7.22
2018-06-17T17:54:40.884Z,9.60
2018-06-17T17:57:09.737Z,7.87
2018-06-17T17:59:38.641Z,7.37
2018-06-17T18:02:07.538Z,10.90
2018-06-17T18:04:36.169Z,7.10
2018-06-17T18:07:05.069Z,6.58
2018-06-17T18:09:34.195Z,8.38
2018-06-17T18:12:03.296Z,8.90
2018-06-17T18:14:31.977Z,8.55
2018-06-17T18:17:09.448Z,6.62
2018-06-17T18:19:42.210Z,10.95
2018-06-17T18:22:11.104Z,6.78
2018-06-17T18:24:39.932Z,6.53
2018-06-17T18:27:20.071Z,9.13
2018-06-17T18:29:54.789Z,6.58
2018-06-17T18:32:29.471Z,6.50
2018-06-17T18:35:03.997Z,9.98
2018-06-17T18:37:32.962Z,7.33
2018-06-17T18:40:01.809Z,5.92
2018-06-17T18:42:30.702Z,6.97
2018-06-17T18:44:59.560Z,9.10
2018-06-17T18:47:29.078Z,9.13
2018-06-17T18:49:58.174Z,8.18
2018-06-17T18:52:27.243Z,8.83
2018-06-17T18:54:55.741Z,7.80
2018-06-17T18:57:24.255Z,13.10
2018-06-17T18:59:53.087Z,9.58
2018-06-17T19:02:23.860Z,8.07
2018-06-17T19:04:52.343Z,7.07
2018-06-17T19:07:23.014Z,9.00
2018-06-17T19:09:57.324Z,6.17
2018-06-17T19:12:31.023Z,9.20
2018-06-17T19:15:04.618Z,10.13
2018-06-17T19:18:38.894Z,8.57
2018-06-17T19:21:07.202Z,11.53
2018-06-17T19:23:35.479Z,9.13
2018-06-17T19:26:04.608Z,10.30
2018-06-17T19:28:32.667Z,13.13
2018-06-17T19:31:00.999Z,9.83
2018-06-17T19:33:29.342Z,14.53
2018-06-17T19:35:57.746Z,12.37
2018-06-17T19:38:27.277Z,16.20
2018-06-17T19:40:55.688Z,15.17
2018-06-17T19:43:24.309Z,12.30
2018-06-17T19:45:52.771Z,15.33
2018-06-17T19:48:21.354Z,13.13
2018-06-17T19:50:55.020Z,14.47
2018-06-17T19:53:30.714Z,11.23
2018-06-17T19:56:04.767Z,10.17
2018-06-17T19:58:38.800Z,13.63
2018-06-17T20:01:07.526Z,9.67
2018-06-17T20:03:36.023Z,8.97
2018-06-17T20:06:05.392Z,10.33
2018-06-17T20:08:34.692Z,9.70
2018-06-17T20:11:03.046Z,9.60
2018-06-17T20:13:31.526Z,12.90
2018-06-17T20:16:00.579Z,10.50
2018-06-17T20:18:29.111Z,12.43
2018-06-17T20:20:57.721Z,8.47
2018-06-17T20:23:26.211Z,11.93
2018-06-17T20:25:55.931Z,14.07
2018-06-17T20:28:24.705Z,16.17
2018-06-17T20:30:53.017Z,10.17
2018-06-17T20:33:26.695Z,13.30
2018-06-17T20:36:00.359Z,11.23
2018-06-17T20:38:34.041Z,10.80
2018-06-17T20:41:07.955Z,12.87
2018-06-17T20:43:41.897Z,10.47
2018-06-17T20:46:10.555Z,12.37
2018-06-17T20:48:40.366Z,9.23
2018-06-17T20:51:10.725Z,13.00
2018-06-17T20:53:40.107Z,10.10
2018-06-17T20:56:10.870Z,6.93
2018-06-17T20:58:39.270Z,8.13
2018-06-17T21:01:07.926Z,9.20
2018-06-17T21:03:36.352Z,9.60
2018-06-17T21:06:05.792Z,11.77
2018-06-17T21:08:37.435Z,6.73
2018-06-17T21:11:05.753Z,6.87
2018-06-17T21:13:34.038Z,8.10
2018-06-17T21:16:02.335Z,7.10
2018-06-17T21:18:35.922Z,9.30
2018-06-17T21:21:09.509Z,10.40
2018-06-17T21:23:43.231Z,9.17
2018-06-17T21:26:16.742Z,8.87
2018-06-17T21:28:45.036Z,13.43
2018-06-17T21:31:13.319Z,10.97
2018-06-17T21:33:41.589Z,8.60
2018-06-17T21:36:09.896Z,6.90
2018-06-17T21:38:38.278Z,8.07
2018-06-17T21:41:06.802Z,10.63
2018-06-17T21:43:35.120Z,5.70
2018-06-17T21:46:03.392Z,8.93
2018-06-17T21:48:31.659Z,6.57
2018-06-17T21:50:59.933Z,9.93
2018-06-17T21:53:28.236Z,8.50
2018-06-17T21:55:56.580Z,6.40
2018-06-17T21:58:30.305Z,9.20
2018-06-17T22:00:58.576Z,8.80
2018-06-17T22:03:26.860Z,7.60
2018-06-17T22:05:55.104Z,7.73
2018-06-17T22:08:28.703Z,8.90
2018-06-17T22:11:02.281Z,9.43
2018-06-17T22:13:35.976Z,11.23
2018-06-17T22:16:09.697Z,10.57
2018-06-17T22:18:38.059Z,10.43
2018-06-17T22:21:06.481Z,8.57
2018-06-17T22:23:34.729Z,9.67
2018-06-17T22:26:03.030Z,9.50
2018-06-17T22:28:31.349Z,8.13
2018-06-17T22:30:59.648Z,8.03
2018-06-17T22:33:27.919Z,7.30
2018-06-17T22:35:56.293Z,6.77
2018-06-17T22:38:24.644Z,9.73
2018-06-17T22:40:52.976Z,8.17
2018-06-17T22:43:21.345Z,5.97
2018-06-17T22:45:49.622Z,7.70
2018-06-17T22:48:17.936Z,9.23
2018-06-17T22:50:46.219Z,7.93
2018-06-17T22:53:25.953Z,9.30
2018-06-17T22:55:54.245Z,8.20
2018-06-17T22:58:27.708Z,10.30
2018-06-17T23:01:01.430Z,7.57
2018-06-17T23:03:35.268Z,10.13
2018-06-17T23:06:09.085Z,8.97
2018-06-17T23:08:42.557Z,7.97
2018-06-17T23:11:10.829Z,6.60
2018-06-17T23:13:39.144Z,9.60
2018-06-17T23:16:07.434Z,12.60
2018-06-17T23:18:35.888Z,8.87
2018-06-17T23:21:04.180Z,13.17
2018-06-17T23:23:32.422Z,9.20
2018-06-17T23:26:00.703Z,12.20
2018-06-17T23:28:28.972Z,9.47
2018-06-17T23:30:57.263Z,10.63
2018-06-17T23:33:25.520Z,12.63
2018-06-17T23:35:53.813Z,8.63
2018-06-17T23:38:22.081Z,9.50
2018-06-17T23:40:50.380Z,14.97
2018-06-17T23:43:18.639Z,13.60
2018-06-17T23:45:52.364Z,7.97
2018-06-17T23:48:26.064Z,10.00
2018-06-17T23:50:59.567Z,10.97
2018-06-17T23:53:33.036Z,12.07
2018-06-17T23:56:07.939Z,11.40
2018-06-17T23:58:37.024Z,10.83
